sensor_id;sensor_type;location;lat;lon;timestamp;temperature;humidity
10417;DHT22;62605;49.432;8.680;2023-02-13T00:00:36;4.70;99.90
10417;DHT22;62605;49.432;8.680;2023-02-13T00:03:04;4.50;99.90
10417;DHT22;62605;49.432;8.680;2023-02-13T00:05:31;4.40;99.90
10417;DHT22;62605;49.432;8.680;2023-02-13T00:07:59;4.40;99.90
10417;DHT22;62605;49.432;8.680;2023-02-13T00:10:30;4.30;99.90
10417;DHT22;62605;49.432;8.680;2023-02-13T00:12:59;4.40;99.90
10417;DHT22;62605;49.432;8.680;2023-02-13T00:15:27;4.50;99.90
10417;DHT22;62605;49.432;8.680;2023-02-13T00:17:54;4.40;99.90
10417;DHT22;62605;49.432;8.680;2023-02-13T00:20:23;4.50;99.90
10417;DHT22;62605;49.432;8.680;2023-02-13T00:22:51;4.40;99.90
10417;DHT22;62605;49.432;8.680;2023-02-13T00:25:19;4.30;99.90
10417;DHT22;62605;49.432;8.680;2023-02-13T00:27:50;4.30;99.90
10417;DHT22;62605;49.432;8.680;2023-02-13T00:30:20;4.30;99.90
10417;DHT22;62605;49.432;8.680;2023-02-13T00:32:47;4.30;99.90
10417;DHT22;62605;49.432;8.680;2023-02-13T00:35:15;4.20;99.90
10417;DHT22;62605;49.432;8.680;2023-02-13T00:37:42;4.20;99.90
10417;DHT22;62605;49.432;8.680;2023-02-13T00:40:11;4.20;99.90
10417;DHT22;62605;49.432;8.680;2023-02-13T00:42:38;4.30;99.90
10417;DHT22;62605;49.432;8.680;2023-02-13T00:45:09;4.30;99.90
10417;DHT22;62605;49.432;8.680;2023-02-13T00:47:36;4.20;99.90
10417;DHT22;62605;49.432;8.680;2023-02-13T00:50:05;4.30;99.90
10417;DHT22;62605;49.432;8.680;2023-02-13T00:52:32;4.30;99.90
10417;DHT22;62605;49.432;8.680;2023-02-13T00:55:01;4.20;99.90
10417;DHT22;62605;49.432;8.680;2023-02-13T00:57:28;4.30;99.90
10417;DHT22;62605;49.432;8.680;2023-02-13T00:59:57;4.30;99.90
10417;DHT22;62605;49.432;8.680;2023-02-13T01:02:27;4.40;99.90
10417;DHT22;62605;49.432;8.680;2023-02-13T01:04:55;4.40;99.90
10417;DHT22;62605;49.432;8.680;2023-02-13T01:07:24;4.50;99.90
10417;DHT22;62605;49.432;8.680;2023-02-13T01:09:51;4.40;99.90
10417;DHT22;62605;49.432;8.680;2023-02-13T01:12:20;4.50;99.90
10417;DHT22;62605;49.432;8.680;2023-02-13T01:14:47;4.40;99.90
10417;DHT22;62605;49.432;8.680;2023-02-13T01:17:16;4.30;99.90
10417;DHT22;62605;49.432;8.680;2023-02-13T01:19:45;4.30;99.90
10417;DHT22;62605;49.432;8.680;2023-02-13T01:22:13;4.40;99.90
10417;DHT22;62605;49.432;8.680;2023-02-13T01:24:40;4.40;99.90
10417;DHT22;62605;49.432;8.680;2023-02-13T01:27:08;4.50;99.90
10417;DHT22;62605;49.432;8.680;2023-02-13T01:29:35;4.50;99.90
10417;DHT22;62605;49.432;8.680;2023-02-13T01:32:04;4.60;99.90
10417;DHT22;62605;49.432;8.680;2023-02-13T01:34:31;4.50;99.90
10417;DHT22;62605;49.432;8.680;2023-02-13T01:37:00;4.50;99.90
10417;DHT22;62605;49.432;8.680;2023-02-13T01:39:28;4.50;99.90
10417;DHT22;62605;49.432;8.680;2023-02-13T01:41:57;4.50;99.90
10417;DHT22;62605;49.432;8.680;2023-02-13T01:44:45;4.60;99.90
10417;DHT22;62605;49.432;8.680;2023-02-13T01:47:21;4.80;99.90
10417;DHT22;62605;49.432;8.680;2023-02-13T01:50:01;4.60;99.90
10417;DHT22;62605;49.432;8.680;2023-02-13T01:52:32;4.50;99.90
10417;DHT22;62605;49.432;8.680;2023-02-13T01:54:59;4.50;99.90
10417;DHT22;62605;49.432;8.680;2023-02-13T01:57:31;4.40;99.90
10417;DHT22;62605;49.432;8.680;2023-02-13T02:00:01;4.50;99.90
10417;DHT22;62605;49.432;8.680;2023-02-13T02:02:33;4.30;99.90
10417;DHT22;62605;49.432;8.680;2023-02-13T02:05:01;4.50;99.90
10417;DHT22;62605;49.432;8.680;2023-02-13T02:07:32;4.60;99.90
10417;DHT22;62605;49.432;8.680;2023-02-13T02:10:02;4.40;99.90
10417;DHT22;62605;49.432;8.680;2023-02-13T02:12:36;4.30;99.90
10417;DHT22;62605;49.432;8.680;2023-02-13T02:15:07;4.40;99.90
10417;DHT22;62605;49.432;8.680;2023-02-13T02:17:35;4.20;99.90
10417;DHT22;62605;49.432;8.680;2023-02-13T02:20:14;4.10;99.90
10417;DHT22;62605;49.432;8.680;2023-02-13T02:29:17;4.00;99.90
10417;DHT22;62605;49.432;8.680;2023-02-13T02:32:22;4.10;99.90
10417;DHT22;62605;49.432;8.680;2023-02-13T02:34:57;4.00;99.90
10417;DHT22;62605;49.432;8.680;2023-02-13T02:37:42;3.90;99.90
10417;DHT22;62605;49.432;8.680;2023-02-13T02:40:18;3.80;99.90
10417;DHT22;62605;49.432;8.680;2023-02-13T02:43:00;3.70;99.90
10417;DHT22;62605;49.432;8.680;2023-02-13T02:45:36;3.70;99.90
10417;DHT22;62605;49.432;8.680;2023-02-13T02:48:10;3.70;99.90
10417;DHT22;62605;49.432;8.680;2023-02-13T02:51:02;3.80;99.90
10417;DHT22;62605;49.432;8.680;2023-02-13T02:53:37;3.60;99.90
10417;DHT22;62605;49.432;8.680;2023-02-13T02:56:11;3.70;99.90
10417;DHT22;62605;49.432;8.680;2023-02-13T02:58:43;3.60;99.90
10417;DHT22;62605;49.432;8.680;2023-02-13T03:01:29;3.60;99.90
10417;DHT22;62605;49.432;8.680;2023-02-13T03:04:21;3.60;99.90
10417;DHT22;62605;49.432;8.680;2023-02-13T03:07:08;3.50;99.90
10417;DHT22;62605;49.432;8.680;2023-02-13T03:09:40;3.30;99.90
10417;DHT22;62605;49.432;8.680;2023-02-13T03:12:32;3.10;99.90
10417;DHT22;62605;49.432;8.680;2023-02-13T03:15:20;3.10;99.90
10417;DHT22;62605;49.432;8.680;2023-02-13T03:17:48;2.90;99.90
10417;DHT22;62605;49.432;8.680;2023-02-13T03:20:41;3.10;99.90
10417;DHT22;62605;49.432;8.680;2023-02-13T03:23:35;2.90;99.90
10417;DHT22;62605;49.432;8.680;2023-02-13T03:26:31;2.90;99.90
10417;DHT22;62605;49.432;8.680;2023-02-13T03:29:16;2.90;99.90
10417;DHT22;62605;49.432;8.680;2023-02-13T03:32:08;2.80;99.90
10417;DHT22;62605;49.432;8.680;2023-02-13T03:34:41;2.70;99.90
10417;DHT22;62605;49.432;8.680;2023-02-13T03:37:34;2.60;99.90
10417;DHT22;62605;49.432;8.680;2023-02-13T03:40:25;2.60;99.90
10417;DHT22;62605;49.432;8.680;2023-02-13T03:42:58;2.50;99.90
10417;DHT22;62605;49.432;8.680;2023-02-13T03:45:31;2.40;99.90
10417;DHT22;62605;49.432;8.680;2023-02-13T03:48:23;2.30;99.90
10417;DHT22;62605;49.432;8.680;2023-02-13T03:51:07;2.40;99.90
10417;DHT22;62605;49.432;8.680;2023-02-13T03:53:38;2.40;99.90
10417;DHT22;62605;49.432;8.680;2023-02-13T03:56:06;2.30;99.90
10417;DHT22;62605;49.432;8.680;2023-02-13T03:58:53;2.30;99.90
10417;DHT22;62605;49.432;8.680;2023-02-13T04:01:44;2.30;99.90
10417;DHT22;62605;49.432;8.680;2023-02-13T04:04:18;2.40;99.90
10417;DHT22;62605;49.432;8.680;2023-02-13T04:06:49;2.60;99.90
10417;DHT22;62605;49.432;8.680;2023-02-13T04:09:19;2.30;99.90
10417;DHT22;62605;49.432;8.680;2023-02-13T04:11:52;2.30;99.90
10417;DHT22;62605;49.432;8.680;2023-02-13T04:14:24;2.30;99.90
10417;DHT22;62605;49.432;8.680;2023-02-13T04:16:57;2.30;99.90
10417;DHT22;62605;49.432;8.680;2023-02-13T04:19:28;2.30;99.90
10417;DHT22;62605;49.432;8.680;2023-02-13T04:21:56;2.10;99.90
10417;DHT22;62605;49.432;8.680;2023-02-13T04:24:26;2.10;99.90
10417;DHT22;62605;49.432;8.680;2023-02-13T04:26:54;2.10;99.90
10417;DHT22;62605;49.432;8.680;2023-02-13T04:29:23;2.00;99.90
10417;DHT22;62605;49.432;8.680;2023-02-13T04:31:50;2.00;99.90
10417;DHT22;62605;49.432;8.680;2023-02-13T04:34:17;1.90;99.90
10417;DHT22;62605;49.432;8.680;2023-02-13T04:36:44;1.90;99.90
10417;DHT22;62605;49.432;8.680;2023-02-13T04:39:11;1.90;99.90
10417;DHT22;62605;49.432;8.680;2023-02-13T04:41:39;1.80;99.90
10417;DHT22;62605;49.432;8.680;2023-02-13T04:44:06;1.80;99.90
10417;DHT22;62605;49.432;8.680;2023-02-13T04:46:33;1.80;99.90
10417;DHT22;62605;49.432;8.680;2023-02-13T04:49:00;1.80;99.90
10417;DHT22;62605;49.432;8.680;2023-02-13T04:51:27;1.80;99.90
10417;DHT22;62605;49.432;8.680;2023-02-13T04:53:54;1.80;99.90
10417;DHT22;62605;49.432;8.680;2023-02-13T04:56:21;1.90;99.90
10417;DHT22;62605;49.432;8.680;2023-02-13T04:58:50;1.90;99.90
10417;DHT22;62605;49.432;8.680;2023-02-13T05:01:17;2.00;99.90
10417;DHT22;62605;49.432;8.680;2023-02-13T05:03:44;1.90;99.90
10417;DHT22;62605;49.432;8.680;2023-02-13T05:06:11;1.80;99.90
10417;DHT22;62605;49.432;8.680;2023-02-13T05:08:38;1.90;99.90
10417;DHT22;62605;49.432;8.680;2023-02-13T05:11:05;1.80;99.90
10417;DHT22;62605;49.432;8.680;2023-02-13T05:13:32;1.70;99.90
10417;DHT22;62605;49.432;8.680;2023-02-13T05:16:01;1.80;99.90
10417;DHT22;62605;49.432;8.680;2023-02-13T05:18:28;1.90;99.90
10417;DHT22;62605;49.432;8.680;2023-02-13T05:20:55;1.70;99.90
10417;DHT22;62605;49.432;8.680;2023-02-13T05:23:39;1.80;99.90
10417;DHT22;62605;49.432;8.680;2023-02-13T05:26:06;1.80;99.90
10417;DHT22;62605;49.432;8.680;2023-02-13T05:28:33;1.80;99.90
10417;DHT22;62605;49.432;8.680;2023-02-13T05:31:15;1.80;99.90
10417;DHT22;62605;49.432;8.680;2023-02-13T05:33:42;1.60;99.90
10417;DHT22;62605;49.432;8.680;2023-02-13T05:36:09;1.70;99.90
10417;DHT22;62605;49.432;8.680;2023-02-13T05:38:36;1.60;99.90
10417;DHT22;62605;49.432;8.680;2023-02-13T05:41:03;1.60;99.90
10417;DHT22;62605;49.432;8.680;2023-02-13T05:43:30;1.60;99.90
10417;DHT22;62605;49.432;8.680;2023-02-13T05:46:01;1.70;99.90
10417;DHT22;62605;49.432;8.680;2023-02-13T05:48:36;1.80;99.90
10417;DHT22;62605;49.432;8.680;2023-02-13T05:51:05;1.80;99.90
10417;DHT22;62605;49.432;8.680;2023-02-13T05:53:33;1.80;99.90
10417;DHT22;62605;49.432;8.680;2023-02-13T05:56:03;1.90;99.90
10417;DHT22;62605;49.432;8.680;2023-02-13T05:58:33;1.80;99.90
10417;DHT22;62605;49.432;8.680;2023-02-13T06:01:05;1.80;99.90
10417;DHT22;62605;49.432;8.680;2023-02-13T06:03:36;1.80;99.90
10417;DHT22;62605;49.432;8.680;2023-02-13T06:06:06;1.60;99.90
10417;DHT22;62605;49.432;8.680;2023-02-13T06:08:34;1.60;99.90
10417;DHT22;62605;49.432;8.680;2023-02-13T06:11:09;1.60;99.90
10417;DHT22;62605;49.432;8.680;2023-02-13T06:18:49;1.10;99.90
10417;DHT22;62605;49.432;8.680;2023-02-13T06:21:30;1.20;99.90
10417;DHT22;62605;49.432;8.680;2023-02-13T06:23:58;1.20;99.90
10417;DHT22;62605;49.432;8.680;2023-02-13T06:26:25;1.30;99.90
10417;DHT22;62605;49.432;8.680;2023-02-13T06:28:52;1.30;99.90
10417;DHT22;62605;49.432;8.680;2023-02-13T06:31:33;1.30;99.90
10417;DHT22;62605;49.432;8.680;2023-02-13T06:34:15;1.30;99.90
10417;DHT22;62605;49.432;8.680;2023-02-13T06:36:51;1.10;99.90
10417;DHT22;62605;49.432;8.680;2023-02-13T07:30:47;1.20;99.90
10417;DHT22;62605;49.432;8.680;2023-02-13T07:33:28;1.20;99.90
10417;DHT22;62605;49.432;8.680;2023-02-13T07:36:29;1.30;99.90
10417;DHT22;62605;49.432;8.680;2023-02-13T07:38:58;1.20;99.90
10417;DHT22;62605;49.432;8.680;2023-02-13T07:41:29;1.30;99.90
10417;DHT22;62605;49.432;8.680;2023-02-13T07:43:56;1.40;99.90
10417;DHT22;62605;49.432;8.680;2023-02-13T07:46:33;1.40;99.90
10417;DHT22;62605;49.432;8.680;2023-02-13T07:49:00;1.50;99.90
10417;DHT22;62605;49.432;8.680;2023-02-13T07:51:41;1.50;99.90
10417;DHT22;62605;49.432;8.680;2023-02-13T07:54:09;1.70;99.90
10417;DHT22;62605;49.432;8.680;2023-02-13T07:56:50;1.70;99.90
10417;DHT22;62605;49.432;8.680;2023-02-13T07:59:30;1.70;99.90
10417;DHT22;62605;49.432;8.680;2023-02-13T08:01:59;1.80;99.90
10417;DHT22;62605;49.432;8.680;2023-02-13T08:04:41;1.80;99.90
10417;DHT22;62605;49.432;8.680;2023-02-13T08:07:11;1.80;99.90
10417;DHT22;62605;49.432;8.680;2023-02-13T08:09:53;1.90;99.90
10417;DHT22;62605;49.432;8.680;2023-02-13T08:12:38;2.00;99.90
10417;DHT22;62605;49.432;8.680;2023-02-13T08:15:08;2.00;99.90
10417;DHT22;62605;49.432;8.680;2023-02-13T08:20:51;2.20;99.90
10417;DHT22;62605;49.432;8.680;2023-02-13T08:23:18;2.50;99.90
10417;DHT22;62605;49.432;8.680;2023-02-13T08:25:59;2.50;99.90
10417;DHT22;62605;49.432;8.680;2023-02-13T08:28:40;2.50;99.90
10417;DHT22;62605;49.432;8.680;2023-02-13T08:34:43;2.60;99.90
10417;DHT22;62605;49.432;8.680;2023-02-13T08:43:20;2.80;99.90
10417;DHT22;62605;49.432;8.680;2023-02-13T08:45:50;2.80;99.90
10417;DHT22;62605;49.432;8.680;2023-02-13T08:48:17;2.80;99.90
10417;DHT22;62605;49.432;8.680;2023-02-13T08:50:46;3.00;99.90
10417;DHT22;62605;49.432;8.680;2023-02-13T08:53:27;3.10;99.90
10417;DHT22;62605;49.432;8.680;2023-02-13T08:55:55;3.20;99.90
10417;DHT22;62605;49.432;8.680;2023-02-13T08:58:53;3.20;99.90
10417;DHT22;62605;49.432;8.680;2023-02-13T09:01:20;3.40;99.90
10417;DHT22;62605;49.432;8.680;2023-02-13T09:03:48;3.60;99.90
10417;DHT22;62605;49.432;8.680;2023-02-13T09:06:29;3.70;99.90
10417;DHT22;62605;49.432;8.680;2023-02-13T09:09:10;3.70;99.90
10417;DHT22;62605;49.432;8.680;2023-02-13T09:11:38;3.90;99.90
10417;DHT22;62605;49.432;8.680;2023-02-13T09:14:06;4.00;99.90
10417;DHT22;62605;49.432;8.680;2023-02-13T09:16:47;4.00;99.90
10417;DHT22;62605;49.432;8.680;2023-02-13T09:19:28;4.00;99.90
10417;DHT22;62605;49.432;8.680;2023-02-13T09:21:56;4.20;99.90
10417;DHT22;62605;49.432;8.680;2023-02-13T09:24:36;4.20;99.90
10417;DHT22;62605;49.432;8.680;2023-02-13T09:27:17;4.40;99.90
10417;DHT22;62605;49.432;8.680;2023-02-13T09:30:14;4.30;99.90
10417;DHT22;62605;49.432;8.680;2023-02-13T09:36:14;4.50;99.90
10417;DHT22;62605;49.432;8.680;2023-02-13T09:38:50;4.60;99.90
10417;DHT22;62605;49.432;8.680;2023-02-13T09:41:24;4.80;99.90
10417;DHT22;62605;49.432;8.680;2023-02-13T09:43:55;4.80;99.90
10417;DHT22;62605;49.432;8.680;2023-02-13T09:46:40;4.90;99.90
10417;DHT22;62605;49.432;8.680;2023-02-13T09:49:12;5.00;99.90
10417;DHT22;62605;49.432;8.680;2023-02-13T09:51:40;5.10;99.90
10417;DHT22;62605;49.432;8.680;2023-02-13T09:54:12;5.20;99.90
10417;DHT22;62605;49.432;8.680;2023-02-13T09:56:47;5.30;99.90
10417;DHT22;62605;49.432;8.680;2023-02-13T09:59:32;5.40;99.90
10417;DHT22;62605;49.432;8.680;2023-02-13T10:05:33;5.50;99.90
10417;DHT22;62605;49.432;8.680;2023-02-13T10:08:30;5.50;99.90
10417;DHT22;62605;49.432;8.680;2023-02-13T10:11:08;5.60;99.90
10417;DHT22;62605;49.432;8.680;2023-02-13T10:13:49;5.80;99.90
10417;DHT22;62605;49.432;8.680;2023-02-13T10:16:21;5.70;99.90
10417;DHT22;62605;49.432;8.680;2023-02-13T10:19:12;5.80;99.90
10417;DHT22;62605;49.432;8.680;2023-02-13T10:21:44;6.00;99.90
10417;DHT22;62605;49.432;8.680;2023-02-13T10:24:32;6.10;99.90
10417;DHT22;62605;49.432;8.680;2023-02-13T10:27:04;6.10;99.90
10417;DHT22;62605;49.432;8.680;2023-02-13T10:32:41;6.20;99.90
10417;DHT22;62605;49.432;8.680;2023-02-13T10:35:19;6.40;99.90
10417;DHT22;62605;49.432;8.680;2023-02-13T10:37:52;6.40;99.90
10417;DHT22;62605;49.432;8.680;2023-02-13T10:40:37;6.50;99.90
10417;DHT22;62605;49.432;8.680;2023-02-13T10:43:20;6.60;99.90
10417;DHT22;62605;49.432;8.680;2023-02-13T10:45:59;6.70;99.90
10417;DHT22;62605;49.432;8.680;2023-02-13T10:51:52;6.70;99.90
10417;DHT22;62605;49.432;8.680;2023-02-13T10:54:52;6.90;99.90
10417;DHT22;62605;49.432;8.680;2023-02-13T11:00:32;7.00;99.90
10417;DHT22;62605;49.432;8.680;2023-02-13T11:03:01;7.10;99.90
10417;DHT22;62605;49.432;8.680;2023-02-13T11:27:37;7.50;99.90
10417;DHT22;62605;49.432;8.680;2023-02-13T11:32:58;7.70;99.90
10417;DHT22;62605;49.432;8.680;2023-02-13T11:35:41;7.70;99.90
10417;DHT22;62605;49.432;8.680;2023-02-13T11:38:17;7.80;99.90
10417;DHT22;62605;49.432;8.680;2023-02-13T11:41:06;7.80;99.90
10417;DHT22;62605;49.432;8.680;2023-02-13T11:43:42;7.80;99.90
10417;DHT22;62605;49.432;8.680;2023-02-13T11:46:17;7.90;99.90
10417;DHT22;62605;49.432;8.680;2023-02-13T13:02:46;9.60;99.90
10417;DHT22;62605;49.432;8.680;2023-02-13T13:25:24;10.00;99.90
10417;DHT22;62605;49.432;8.680;2023-02-13T13:28:00;10.10;99.90
10417;DHT22;62605;49.432;8.680;2023-02-13T13:30:30;10.10;99.90
10417;DHT22;62605;49.432;8.680;2023-02-13T13:33:15;10.10;99.90
10417;DHT22;62605;49.432;8.680;2023-02-13T13:36:02;10.20;99.90
10417;DHT22;62605;49.432;8.680;2023-02-13T13:38:38;10.30;99.90
10417;DHT22;62605;49.432;8.680;2023-02-13T13:44:28;10.40;99.90
10417;DHT22;62605;49.432;8.680;2023-02-13T13:47:08;10.50;99.90
10417;DHT22;62605;49.432;8.680;2023-02-13T13:49:44;10.50;99.90
10417;DHT22;62605;49.432;8.680;2023-02-13T13:52:24;10.50;99.90
10417;DHT22;62605;49.432;8.680;2023-02-13T13:58:21;10.60;99.90
10417;DHT22;62605;49.432;8.680;2023-02-13T14:01:21;10.50;99.90
10417;DHT22;62605;49.432;8.680;2023-02-13T14:03:50;10.60;99.90
10417;DHT22;62605;49.432;8.680;2023-02-13T14:06:19;10.60;99.90
10417;DHT22;62605;49.432;8.680;2023-02-13T14:09:37;10.60;99.90
10417;DHT22;62605;49.432;8.680;2023-02-13T14:12:34;10.70;99.90
10417;DHT22;62605;49.432;8.680;2023-02-13T14:15:51;10.70;99.90
10417;DHT22;62605;49.432;8.680;2023-02-13T14:18:22;10.70;99.90
10417;DHT22;62605;49.432;8.680;2023-02-13T14:21:05;10.80;99.90
10417;DHT22;62605;49.432;8.680;2023-02-13T14:23:37;10.80;99.90
10417;DHT22;62605;49.432;8.680;2023-02-13T14:26:48;10.90;99.90
10417;DHT22;62605;49.432;8.680;2023-02-13T14:29:32;10.90;99.90
10417;DHT22;62605;49.432;8.680;2023-02-13T14:32:18;10.90;99.90
10417;DHT22;62605;49.432;8.680;2023-02-13T14:34:58;10.70;99.90
10417;DHT22;62605;49.432;8.680;2023-02-13T14:37:47;10.80;99.90
10417;DHT22;62605;49.432;8.680;2023-02-13T14:43:32;10.80;99.90
10417;DHT22;62605;49.432;8.680;2023-02-13T14:46:16;10.70;99.90
10417;DHT22;62605;49.432;8.680;2023-02-13T14:49:01;10.80;99.90
10417;DHT22;62605;49.432;8.680;2023-02-13T14:51:46;10.70;99.90
10417;DHT22;62605;49.432;8.680;2023-02-13T14:54:31;10.80;99.90
10417;DHT22;62605;49.432;8.680;2023-02-13T14:57:05;10.80;99.90
10417;DHT22;62605;49.432;8.680;2023-02-13T14:59:35;10.80;99.90
10417;DHT22;62605;49.432;8.680;2023-02-13T15:02:15;10.80;99.90
10417;DHT22;62605;49.432;8.680;2023-02-13T15:04:48;10.80;99.90
10417;DHT22;62605;49.432;8.680;2023-02-13T15:07:20;10.80;99.90
10417;DHT22;62605;49.432;8.680;2023-02-13T15:09:50;10.80;99.90
10417;DHT22;62605;49.432;8.680;2023-02-13T15:12:30;10.80;99.90
10417;DHT22;62605;49.432;8.680;2023-02-13T15:14:58;10.80;99.90
10417;DHT22;62605;49.432;8.680;2023-02-13T15:17:28;10.80;99.90
10417;DHT22;62605;49.432;8.680;2023-02-13T15:20:02;10.80;99.90
10417;DHT22;62605;49.432;8.680;2023-02-13T15:22:34;10.80;99.90
10417;DHT22;62605;49.432;8.680;2023-02-13T15:25:02;10.70;99.90
10417;DHT22;62605;49.432;8.680;2023-02-13T15:27:31;10.60;99.90
10417;DHT22;62605;49.432;8.680;2023-02-13T15:30:00;10.60;99.90
10417;DHT22;62605;49.432;8.680;2023-02-13T15:32:31;10.50;99.90
10417;DHT22;62605;49.432;8.680;2023-02-13T15:34:59;10.50;99.90
10417;DHT22;62605;49.432;8.680;2023-02-13T15:37:28;10.50;99.90
10417;DHT22;62605;49.432;8.680;2023-02-13T15:40:12;10.40;99.90
10417;DHT22;62605;49.432;8.680;2023-02-13T15:42:40;10.40;99.90
10417;DHT22;62605;49.432;8.680;2023-02-13T15:45:13;10.40;99.90
10417;DHT22;62605;49.432;8.680;2023-02-13T15:47:42;10.40;99.90
10417;DHT22;62605;49.432;8.680;2023-02-13T15:50:18;10.40;99.90
10417;DHT22;62605;49.432;8.680;2023-02-13T15:52:46;10.20;99.90
10417;DHT22;62605;49.432;8.680;2023-02-13T15:55:23;10.20;99.90
10417;DHT22;62605;49.432;8.680;2023-02-13T15:57:56;10.10;99.90
10417;DHT22;62605;49.432;8.680;2023-02-13T16:00:28;10.00;99.90
10417;DHT22;62605;49.432;8.680;2023-02-13T16:02:57;9.90;99.90
10417;DHT22;62605;49.432;8.680;2023-02-13T16:05:26;9.90;99.90
10417;DHT22;62605;49.432;8.680;2023-02-13T16:07:55;10.00;99.90
10417;DHT22;62605;49.432;8.680;2023-02-13T16:10:27;9.90;99.90
10417;DHT22;62605;49.432;8.680;2023-02-13T16:12:58;9.70;99.90
10417;DHT22;62605;49.432;8.680;2023-02-13T16:15:29;10.00;99.90
10417;DHT22;62605;49.432;8.680;2023-02-13T16:17:59;9.70;99.90
10417;DHT22;62605;49.432;8.680;2023-02-13T16:20:27;9.60;99.90
10417;DHT22;62605;49.432;8.680;2023-02-13T16:22:56;9.50;99.90
10417;DHT22;62605;49.432;8.680;2023-02-13T16:25:28;9.40;99.90
10417;DHT22;62605;49.432;8.680;2023-02-13T16:27:58;9.40;99.90
10417;DHT22;62605;49.432;8.680;2023-02-13T16:30:33;9.20;99.90
10417;DHT22;62605;49.432;8.680;2023-02-13T16:33:20;9.40;99.90
10417;DHT22;62605;49.432;8.680;2023-02-13T16:35:49;9.10;99.90
10417;DHT22;62605;49.432;8.680;2023-02-13T16:38:25;9.00;99.90
10417;DHT22;62605;49.432;8.680;2023-02-13T16:40:55;8.70;99.90
10417;DHT22;62605;49.432;8.680;2023-02-13T16:43:37;8.60;99.90
10417;DHT22;62605;49.432;8.680;2023-02-13T16:46:23;8.90;99.90
10417;DHT22;62605;49.432;8.680;2023-02-13T16:49:13;8.80;99.90
10417;DHT22;62605;49.432;8.680;2023-02-13T16:51:43;8.50;99.90
10417;DHT22;62605;49.432;8.680;2023-02-13T16:54:21;8.30;99.90
10417;DHT22;62605;49.432;8.680;2023-02-13T16:56:52;8.40;99.90
10417;DHT22;62605;49.432;8.680;2023-02-13T16:59:28;8.20;99.90
10417;DHT22;62605;49.432;8.680;2023-02-13T17:04:48;7.80;99.90
10417;DHT22;62605;49.432;8.680;2023-02-13T17:07:18;7.70;99.90
10417;DHT22;62605;49.432;8.680;2023-02-13T17:09:52;7.80;99.90
10417;DHT22;62605;49.432;8.680;2023-02-13T17:12:21;7.60;99.90
10417;DHT22;62605;49.432;8.680;2023-02-13T17:14:48;7.50;99.90
10417;DHT22;62605;49.432;8.680;2023-02-13T17:17:17;7.40;99.90
10417;DHT22;62605;49.432;8.680;2023-02-13T17:19:45;7.40;99.90
10417;DHT22;62605;49.432;8.680;2023-02-13T17:22:22;7.30;99.90
10417;DHT22;62605;49.432;8.680;2023-02-13T17:24:51;7.20;99.90
10417;DHT22;62605;49.432;8.680;2023-02-13T17:27:20;7.50;99.90
10417;DHT22;62605;49.432;8.680;2023-02-13T17:29:48;7.30;99.90
10417;DHT22;62605;49.432;8.680;2023-02-13T17:32:17;7.10;99.90
10417;DHT22;62605;49.432;8.680;2023-02-13T17:34:45;7.00;99.90
10417;DHT22;62605;49.432;8.680;2023-02-13T17:37:17;6.90;99.90
10417;DHT22;62605;49.432;8.680;2023-02-13T17:39:45;6.90;99.90
10417;DHT22;62605;49.432;8.680;2023-02-13T17:42:18;6.80;99.90
10417;DHT22;62605;49.432;8.680;2023-02-13T17:44:50;6.70;99.90
10417;DHT22;62605;49.432;8.680;2023-02-13T17:47:18;6.60;99.90
10417;DHT22;62605;49.432;8.680;2023-02-13T17:49:45;6.60;99.90
10417;DHT22;62605;49.432;8.680;2023-02-13T17:52:16;6.50;99.90
10417;DHT22;62605;49.432;8.680;2023-02-13T17:54:44;6.40;99.90
10417;DHT22;62605;49.432;8.680;2023-02-13T17:57:12;6.50;99.90
10417;DHT22;62605;49.432;8.680;2023-02-13T17:59:39;6.50;99.90
10417;DHT22;62605;49.432;8.680;2023-02-13T18:02:27;6.50;99.90
10417;DHT22;62605;49.432;8.680;2023-02-13T18:04:56;6.80;99.90
10417;DHT22;62605;49.432;8.680;2023-02-13T18:07:25;6.60;99.90
10417;DHT22;62605;49.432;8.680;2023-02-13T18:09:54;6.50;99.90
10417;DHT22;62605;49.432;8.680;2023-02-13T18:12:23;6.70;99.90
10417;DHT22;62605;49.432;8.680;2023-02-13T18:14:52;6.60;99.90
10417;DHT22;62605;49.432;8.680;2023-02-13T18:17:20;6.70;99.90
10417;DHT22;62605;49.432;8.680;2023-02-13T18:19:49;6.60;99.90
10417;DHT22;62605;49.432;8.680;2023-02-13T18:22:18;6.50;99.90
10417;DHT22;62605;49.432;8.680;2023-02-13T18:24:47;6.60;99.90
10417;DHT22;62605;49.432;8.680;2023-02-13T18:27:18;6.40;99.90
10417;DHT22;62605;49.432;8.680;2023-02-13T18:29:45;6.40;99.90
10417;DHT22;62605;49.432;8.680;2023-02-13T18:32:13;6.40;99.90
10417;DHT22;62605;49.432;8.680;2023-02-13T18:34:41;6.50;99.90
10417;DHT22;62605;49.432;8.680;2023-02-13T18:37:11;6.60;99.90
10417;DHT22;62605;49.432;8.680;2023-02-13T18:39:39;6.60;99.90
10417;DHT22;62605;49.432;8.680;2023-02-13T18:42:07;7.00;99.90
10417;DHT22;62605;49.432;8.680;2023-02-13T18:44:34;7.30;99.90
10417;DHT22;62605;49.432;8.680;2023-02-13T18:47:01;7.20;99.90
10417;DHT22;62605;49.432;8.680;2023-02-13T18:49:29;7.50;99.90
10417;DHT22;62605;49.432;8.680;2023-02-13T18:51:56;7.10;99.90
10417;DHT22;62605;49.432;8.680;2023-02-13T18:54:26;7.30;99.90
10417;DHT22;62605;49.432;8.680;2023-02-13T18:56:56;7.00;99.90
10417;DHT22;62605;49.432;8.680;2023-02-13T18:59:24;7.00;99.90
10417;DHT22;62605;49.432;8.680;2023-02-13T19:01:51;7.00;99.90
10417;DHT22;62605;49.432;8.680;2023-02-13T19:04:18;7.10;99.90
10417;DHT22;62605;49.432;8.680;2023-02-13T19:06:46;7.20;99.90
10417;DHT22;62605;49.432;8.680;2023-02-13T19:09:14;7.10;99.90
10417;DHT22;62605;49.432;8.680;2023-02-13T19:11:43;7.20;99.90
10417;DHT22;62605;49.432;8.680;2023-02-13T19:14:13;7.20;99.90
10417;DHT22;62605;49.432;8.680;2023-02-13T19:16:41;7.10;99.90
10417;DHT22;62605;49.432;8.680;2023-02-13T19:19:09;7.00;99.90
10417;DHT22;62605;49.432;8.680;2023-02-13T19:21:37;6.90;99.90
10417;DHT22;62605;49.432;8.680;2023-02-13T19:24:06;6.90;99.90
10417;DHT22;62605;49.432;8.680;2023-02-13T19:26:34;6.90;99.90
10417;DHT22;62605;49.432;8.680;2023-02-13T19:29:03;6.70;99.90
10417;DHT22;62605;49.432;8.680;2023-02-13T19:31:31;6.60;99.90
10417;DHT22;62605;49.432;8.680;2023-02-13T19:33:59;7.10;99.90
10417;DHT22;62605;49.432;8.680;2023-02-13T19:36:27;7.10;99.90
10417;DHT22;62605;49.432;8.680;2023-02-13T19:38:56;7.00;99.90
10417;DHT22;62605;49.432;8.680;2023-02-13T19:41:24;6.90;99.90
10417;DHT22;62605;49.432;8.680;2023-02-13T19:43:52;7.10;99.90
10417;DHT22;62605;49.432;8.680;2023-02-13T19:46:22;6.90;99.90
10417;DHT22;62605;49.432;8.680;2023-02-13T19:48:51;7.00;99.90
10417;DHT22;62605;49.432;8.680;2023-02-13T19:51:23;6.80;99.90
10417;DHT22;62605;49.432;8.680;2023-02-13T19:53:54;6.90;99.90
10417;DHT22;62605;49.432;8.680;2023-02-13T19:56:22;6.90;99.90
10417;DHT22;62605;49.432;8.680;2023-02-13T19:58:50;6.90;99.90
10417;DHT22;62605;49.432;8.680;2023-02-13T20:01:25;6.70;99.90
10417;DHT22;62605;49.432;8.680;2023-02-13T20:03:58;6.50;99.90
10417;DHT22;62605;49.432;8.680;2023-02-13T20:06:29;6.70;99.90
10417;DHT22;62605;49.432;8.680;2023-02-13T20:08:59;6.80;99.90